Latest Coastal Weather Observations for Rowley Shoals

IDW60701

Issued at 4:33 pm WST Sunday 24 September 2017 (issued every 10 minutes, with the page automatically refreshed every 10 minutes)

About coastal observations | Map of coastal stations | Coastal observations for WA | Marine services | Other Formats
Station Details ID: 200713 Name: ROWLEY SHOALS Lat: -17.52 Lon: 118.95 Height: 0.0 m
Data from the previous 72 hours. | See also: Recent months at Rowley Shoals
Date/Time
WST
Temp
°C
Wind Pressure Rain since
9am
mm
Weather Cloud Vis
km
Sea
Height
m
Swell
Dir  Spd
kts
Gust
kts
hPa Trend Height
m
Period
s
Dir
24/04:30pm - SW 14 16 1010.7 - - - - - - - - -
24/04:00pm - SW 14 17 1010.8 - - - - - - - - -
24/03:30pm - SW 14 17 1011.0 - - - - - - - - -
24/03:00pm - SW 13 16 1011.2 - - - - - - - - -
24/02:30pm - SW 13 16 1011.3 - - - - - - - - -
24/02:00pm - SW 13 16 1011.4 - - - - - - - - -
24/01:30pm - SW 14 16 1011.8 - - - - - - - - -
24/01:00pm - SW 15 17 1011.9 - - - - - - - - -
24/12:30pm - SW 14 16 1012.1 - - - - - - - - -
24/12:00pm - SSW 15 17 1012.1 - - - - - - - - -
24/11:30am - SW 14 18 1012.8 - - - - - - - - -
24/11:00am - SW 15 17 1012.9 - - - - - - - - -
24/10:30am - SW 14 17 1013.3 - - - - - - - - -
24/10:00am - SW 15 18 1013.6 - - - - - - - - -
24/09:30am - SW 16 19 1013.8 - - - - - - - - -
24/09:00am - SW 15 17 1013.8 - - - - - - - - -
24/08:30am - SW 15 17 1013.9 - - - - - - - - -
24/08:00am - SW 16 19 1013.7 - - - - - - - - -
24/07:30am - SW 16 18 1013.3 - - - - - - - - -
24/07:00am - SW 16 19 1013.1 - - - - - - - - -
24/06:30am - SW 16 20 1012.8 - - - - - - - - -
24/06:00am - SW 17 19 1012.5 - - - - - - - - -
24/05:30am - SW 16 19 1012.2 - - - - - - - - -
24/05:00am - SW 17 20 1012.0 - - - - - - - - -
24/04:30am - SW 16 19 1011.9 - - - - - - - - -
24/04:00am - SW 17 19 1011.6 - - - - - - - - -
24/03:30am - SW 15 19 1011.7 - - - - - - - - -
24/03:00am - SW 15 18 1011.8 - - - - - - - - -
24/02:30am - SW 16 18 1012.0 - - - - - - - - -
24/02:00am - SW 15 19 1012.1 - - - - - - - - -
24/01:30am - SW 15 17 1012.4 - - - - - - - - -
24/01:00am - SW 15 17 1012.6 - - - - - - - - -
24/12:30am - SW 13 15 1012.9 - - - - - - - - -
24/12:00am - SW 14 16 1012.9 - - - - - - - - -
 
Date/Time
WST
Temp
°C
Wind Pressure Rain since
9am
mm
Weather Cloud Vis
km
Sea
Height
m
Swell
Dir  Spd
kts
Gust
kts
hPa Trend Height
m
Period
s
Dir
23/11:30pm - SW 14 16 1013.2 - - - - - - - - -
23/11:00pm - SW 14 16 1013.3 - - - - - - - - -
23/10:30pm - SW 14 16 1013.5 - - - - - - - - -
23/10:00pm - SW 14 16 1013.5 - - - - - - - - -
23/09:30pm - SW 14 17 1013.6 - - - - - - - - -
23/09:00pm - SW 14 16 1013.6 - - - - - - - - -
23/08:30pm - SW 13 16 1013.4 - - - - - - - - -
23/08:00pm - SW 13 15 1013.1 - - - - - - - - -
23/07:30pm - SW 11 13 1012.9 - - - - - - - - -
23/07:00pm - SW 12 14 1012.7 - - - - - - - - -
23/06:30pm - SW 13 15 1012.4 - - - - - - - - -
23/06:00pm - SSW 12 15 1012.3 - - - - - - - - -
23/05:30pm - SSW 11 13 1012.4 - - - - - - - - -
23/05:00pm - SSW 11 13 1012.2 - - - - - - - - -
23/04:30pm - SSW 10 12 1012.0 - - - - - - - - -
23/04:00pm - SSW 11 13 1012.0 - - - - - - - - -
23/03:30pm - SSW 12 14 1012.2 - - - - - - - - -
23/03:00pm - SSW 13 15 1012.3 - - - - - - - - -
23/02:30pm - SSW 13 16 1012.5 - - - - - - - - -
23/02:00pm - SSW 13 15 1012.7 - - - - - - - - -
23/01:30pm - SSW 12 14 1013.0 - - - - - - - - -
23/01:00pm - SSW 12 14 1013.2 - - - - - - - - -
23/12:30pm - SSW 12 14 1013.6 - - - - - - - - -
23/12:00pm - SSW 13 14 1013.6 - - - - - - - - -
23/11:30am - SSW 12 14 1014.0 - - - - - - - - -
23/11:00am - SSW 9 9 1014.3 - - - - - - - - -
23/10:30am - SSW 8 10 1014.7 - - - - - - - - -
23/10:00am - SSW 8 10 1014.9 - - - - - - - - -
23/09:30am - SSW 8 9 1015.0 - - - - - - - - -
23/09:00am - SSW 8 9 1014.8 - - - - - - - - -
23/08:30am - SSW 8 9 1014.8 - - - - - - - - -
23/08:00am - SSW 8 9 1014.4 - - - - - - - - -
23/07:30am - SSW 9 11 1014.1 - - - - - - - - -
23/07:00am - SSW 9 10 1013.7 - - - - - - - - -
23/06:30am - SSW 10 11 1013.4 - - - - - - - - -
23/06:00am - SSW 10 12 1013.4 - - - - - - - - -
23/05:30am - SSW 11 13 1013.1 - - - - - - - - -
23/05:00am - SSW 12 14 1012.9 - - - - - - - - -
23/04:30am - SSW 12 15 1012.5 - - - - - - - - -
23/04:00am - SW 11 13 1012.7 - - - - - - - - -
23/03:30am - SW 13 15 1012.5 - - - - - - - - -
23/03:00am - SW 13 15 1012.3 - - - - - - - - -
23/02:30am - SW 12 14 1012.4 - - - - - - - - -
23/02:00am - SW 10 12 1012.4 - - - - - - - - -
23/01:30am - SW 11 13 1012.7 - - - - - - - - -
23/01:00am - SW 13 14 1012.6 - - - - - - - - -
23/12:30am - SW 12 15 1012.5 - - - - - - - - -
23/12:00am - SW 14 16 1012.5 - - - - - - - - -
 
Date/Time
WST
Temp
°C
Wind Pressure Rain since
9am
mm
Weather Cloud Vis
km
Sea
Height
m
Swell
Dir  Spd
kts
Gust
kts
hPa Trend Height
m
Period
s
Dir
22/11:30pm - SW 15 17 1012.8 - - - - - - - - -
22/11:00pm - SW 16 19 1012.9 - - - - - - - - -
22/10:30pm - SW 16 19 1012.6 - - - - - - - - -
22/10:00pm - SSW 10 11 1013.1 - - - - - - - - -
22/09:30pm - SW 11 13 1013.1 - - - - - - - - -
22/09:00pm - SW 12 14 1013.0 - - - - - - - - -
22/08:30pm - SSW 11 13 1013.0 - - - - - - - - -
22/08:00pm - SW 9 11 1012.8 - - - - - - - - -
22/07:30pm - SW 11 11 1012.5 - - - - - - - - -
22/07:00pm - SW 9 11 1012.4 - - - - - - - - -
22/06:30pm - SSW 9 10 1011.8 - - - - - - - - -
22/06:00pm - SSW 9 11 1011.8 - - - - - - - - -
22/05:30pm - SW 9 11 1011.6 - - - - - - - - -
22/05:00pm - SW 10 12 1011.6 - - - - - - - - -
22/04:30pm - SW 11 13 1011.5 - - - - - - - - -
22/04:00pm - SSW 11 13 1011.4 - - - - - - - - -
22/03:30pm - SSW 11 11 1011.3 - - - - - - - - -
22/03:00pm - SSW 9 11 1011.4 - - - - - - - - -
22/02:30pm - SW 9 10 1011.4 - - - - - - - - -
22/02:00pm - SW 9 10 1011.6 - - - - - - - - -
22/01:30pm - SW 9 11 1012.0 - - - - - - - - -
22/01:00pm - SW 10 11 1012.2 - - - - - - - - -
22/12:30pm - SW 11 13 1012.6 - - - - - - - - -
22/12:00pm - SW 12 14 1012.8 - - - - - - - - -
22/11:30am - SW 12 14 1013.0 - - - - - - - - -
22/11:00am - SW 13 15 1013.2 - - - - - - - - -
22/10:30am - SW 13 16 1013.3 - - - - - - - - -
22/10:00am - SW 14 16 1013.3 - - - - - - - - -
22/09:30am - SW 15 17 1013.1 - - - - - - - - -
22/09:00am - SW 14 16 1013.1 - - - - - - - - -
22/08:30am - SW 13 15 1013.1 - - - - - - - - -
22/08:00am - SW 12 15 1012.9 - - - - - - - - -
22/07:30am - SW 8 9 1012.9 - - - - - - - - -
22/07:00am - SW 8 9 1012.9 - - - - - - - - -
22/06:30am - SW 12 13 1012.4 - - - - - - - - -
22/06:00am - WSW 10 11 1012.1 - - - - - - - - -
22/05:30am - SW 10 11 1011.8 - - - - - - - - -
22/05:00am - WSW 10 11 1011.7 - - - - - - - - -
22/04:30am - WSW 9 11 1011.4 - - - - - - - - -
22/04:00am - WSW 9 11 1011.4 - - - - - - - - -
22/03:30am - W 9 10 1011.0 - - - - - - - - -
22/03:00am - W 9 10 1010.9 - - - - - - - - -
22/02:30am - W 9 11 1011.0 - - - - - - - - -
22/02:00am - WSW 8 9 1011.1 - - - - - - - - -
22/01:30am - WSW 9 10 1011.1 - - - - - - - - -
22/01:00am - WSW 9 11 1011.2 - - - - - - - - -
22/12:30am - WSW 9 10 1011.4 - - - - - - - - -
22/12:00am - W 7 9 1011.5 - - - - - - - - -
 
Date/Time
WST
Temp
°C
Wind Pressure Rain since
9am
mm
Weather Cloud Vis
km
Sea
Height
m
Swell
Dir  Spd
kts
Gust
kts
hPa Trend Height
m
Period
s
Dir
21/11:30pm - W 7 8 1011.8 - - - - - - - - -
21/11:00pm - WSW 7 7 1012.0 - - - - - - - - -
21/10:30pm - WSW 7 8 1012.0 - - - - - - - - -
21/10:00pm - WSW 6 7 1012.1 - - - - - - - - -
21/09:30pm - WSW 7 8 1012.2 - - - - - - - - -
21/09:00pm - W 5 6 1012.2 - - - - - - - - -
21/08:30pm - W 5 6 1012.2 - - - - - - - - -
21/08:00pm - WSW 9 11 1011.9 - - - - - - - - -
21/07:30pm - WSW 9 11 1011.1 - - - - - - - - -
21/07:00pm - WSW 9 10 1010.9 - - - - - - - - -
21/06:30pm - SW 9 11 1010.5 - - - - - - - - -
21/06:00pm - SW 8 9 1010.3 - - - - - - - - -
21/05:30pm - WSW 7 9 1010.2 - - - - - - - - -
21/05:00pm - SW 8 9 1010.1 - - - - - - - - -

Other Formats:

Comma delimited format used in spreadsheet applications
http://www.bom.gov.au/fwo/IDW60701/IDW60701.94207.axf

JavaScript Object Notation format (JSON) in row-major order
http://www.bom.gov.au/fwo/IDW60701/IDW60701.94207.json